Time;durP1;ratioP1;P1;durP2;ratioP2;P2;SDS_P1;SDS_P2;PMS_P1;PMS_P2;Temp;Humidity;BMP_temperature;BMP_pressure;BME280_temperature;BME280_humidity;BME280_pressure;Samples;Min_cycle;Max_cycle;Signal;HPM_P1;HPM_P2
2022/01/11 00:01:32;;;;;;;38.95;22.58;;;2.40;99.90;;;;;;4964731;28;20538;-66
2022/01/11 00:03:58;;;;;;;43.45;23.17;;;2.40;99.90;;;;;;4969672;28;20411;-66
2022/01/11 00:08:51;;;;;;;44.90;23.10;;;2.40;99.90;;;;;;4974363;28;20031;-67
2022/01/11 00:11:19;;;;;;;46.38;25.48;;;2.40;99.90;;;;;;4977000;28;20014;-67
2022/01/11 00:13:44;;;;;;;46.35;24.98;;;2.40;99.90;;;;;;4970102;28;20109;-66
2022/01/11 00:16:13;;;;;;;49.42;25.27;;;2.40;99.90;;;;;;4969330;28;20565;-66
2022/01/11 00:18:39;;;;;;;49.33;25.17;;;2.40;99.90;;;;;;4965844;28;20070;-66
2022/01/11 00:21:08;;;;;;;45.00;24.30;;;2.40;99.90;;;;;;4969043;28;20109;-66
2022/01/11 00:25:59;;;;;;;49.40;27.88;;;2.40;99.90;;;;;;4973516;28;20462;-67
2022/01/11 00:28:26;;;;;;;45.78;25.48;;;2.40;99.90;;;;;;4967951;28;20065;-67
2022/01/11 00:30:56;;;;;;;47.90;26.13;;;2.40;99.90;;;;;;4962969;28;20031;-67
2022/01/11 00:33:31;;;;;;;52.13;26.35;;;2.40;99.90;;;;;;4969363;28;20047;-66
2022/01/11 00:35:59;;;;;;;48.15;25.05;;;2.40;99.90;;;;;;4980381;28;20026;-66
2022/01/11 00:38:29;;;;;;;44.28;24.42;;;2.40;99.90;;;;;;4974024;28;20027;-66
2022/01/11 00:40:59;;;;;;;46.38;26.13;;;2.40;99.90;;;;;;4966084;28;20492;-66
2022/01/11 00:43:26;;;;;;;51.85;26.73;;;2.40;99.90;;;;;;4969467;28;20041;-67
2022/01/11 00:45:54;;;;;;;48.42;25.10;;;2.40;99.90;;;;;;4964956;28;20053;-66
2022/01/11 00:48:20;;;;;;;55.63;25.40;;;2.50;99.90;;;;;;4972621;28;20037;-67
2022/01/11 00:50:47;;;;;;;45.53;24.90;;;2.40;99.90;;;;;;4976425;28;20031;-66
2022/01/11 00:53:13;;;;;;;51.78;26.38;;;2.40;99.90;;;;;;4962314;28;20027;-66
2022/01/11 00:56:00;;;;;;;46.90;26.98;;;2.40;99.90;;;;;;4965099;28;20034;-67
2022/01/11 00:58:25;;;;;;;54.65;25.60;;;2.30;99.90;;;;;;4971682;28;20049;-66
2022/01/11 01:00:51;;;;;;;48.58;27.23;;;2.30;99.90;;;;;;4970908;28;20118;-66
2022/01/11 01:03:17;;;;;;;46.75;26.10;;;2.30;99.90;;;;;;4970029;28;20486;-66
2022/01/11 01:05:48;;;;;;;55.83;25.80;;;2.30;99.90;;;;;;4962193;28;20027;-66
2022/01/11 01:08:14;;;;;;;;;;;2.30;99.90;;;;;;4967786;28;20607;-66
2022/01/11 01:10:46;;;;;;;52.58;24.70;;;2.30;99.90;;;;;;4961998;28;19965;-67
2022/01/11 01:13:17;;;;;;;53.65;25.25;;;2.30;99.90;;;;;;4971559;28;20478;-66
2022/01/11 01:15:47;;;;;;;45.22;24.65;;;2.40;99.90;;;;;;4979254;28;20032;-66
2022/01/11 01:18:15;;;;;;;49.40;27.20;;;2.40;99.90;;;;;;4966731;28;20062;-66
2022/01/11 01:20:42;;;;;;;56.90;27.70;;;2.40;99.90;;;;;;4965966;28;20027;-66
2022/01/11 01:23:08;;;;;;;46.88;24.42;;;2.40;99.90;;;;;;4968755;28;20731;-66
2022/01/11 01:25:37;;;;;;;50.47;25.83;;;2.40;99.90;;;;;;4969406;28;20035;-66
2022/01/11 01:28:14;;;;;;;52.78;25.80;;;2.40;99.90;;;;;;4969490;28;20030;-67
2022/01/11 01:30:39;;;;;;;45.80;25.83;;;2.40;99.90;;;;;;4970499;28;20487;-66
2022/01/11 01:33:06;;;;;;;54.95;28.30;;;2.40;99.90;;;;;;4967764;28;20032;-66
2022/01/11 01:35:47;;;;;;;43.17;25.35;;;2.40;99.90;;;;;;4961018;28;20565;-66
2022/01/11 01:38:13;;;;;;;44.03;24.85;;;2.40;99.90;;;;;;4963950;28;20061;-66
2022/01/11 01:40:46;;;;;;;37.42;21.17;;;2.40;99.90;;;;;;4972783;28;20027;-66
2022/01/11 01:43:13;;;;;;;45.22;23.52;;;2.40;99.90;;;;;;4957816;28;20086;-66
2022/01/11 01:45:43;;;;;;;42.08;23.58;;;2.40;99.90;;;;;;4967448;28;20490;-66
2022/01/11 01:48:09;;;;;;;47.40;24.67;;;2.40;99.90;;;;;;4965197;28;20027;-67
2022/01/11 01:50:39;;;;;;;46.83;25.42;;;2.40;99.90;;;;;;4969561;28;20106;-67
2022/01/11 01:53:07;;;;;;;50.53;27.23;;;2.40;99.90;;;;;;4974115;28;20035;-66
2022/01/11 01:55:35;;;;;;;52.03;26.10;;;2.40;99.90;;;;;;4973126;28;20054;-66
2022/01/11 01:58:03;;;;;;;48.92;25.65;;;2.40;99.90;;;;;;4950052;28;20115;-66
2022/01/11 02:00:30;;;;;;;50.00;26.45;;;2.40;99.90;;;;;;4955283;28;20022;-66
2022/01/11 02:03:11;;;;;;;57.88;26.40;;;2.40;99.90;;;;;;4970797;28;20114;-66
2022/01/11 02:05:43;;;;;;;50.97;25.77;;;2.40;99.90;;;;;;4966568;28;20037;-66
2022/01/11 02:08:10;;;;;;;50.95;26.05;;;2.40;99.90;;;;;;4967529;28;20031;-67
2022/01/11 02:10:40;;;;;;;52.65;27.00;;;2.40;99.90;;;;;;4961842;28;20498;-66
2022/01/11 02:13:08;;;;;;;51.63;26.85;;;2.40;99.90;;;;;;4961721;28;20038;-66
2022/01/11 02:15:40;;;;;;;55.40;26.50;;;2.40;99.90;;;;;;4969069;28;20096;-66
2022/01/11 02:18:14;;;;;;;66.53;27.95;;;2.40;99.90;;;;;;4971340;28;20366;-66
2022/01/11 02:20:45;;;;;;;53.53;27.70;;;2.30;99.90;;;;;;4973312;28;20054;-66
2022/01/11 02:23:11;;;;;;;56.97;27.23;;;2.30;99.90;;;;;;4961145;28;20032;-66
2022/01/11 02:25:37;;;;;;;50.35;26.20;;;2.30;99.90;;;;;;4967165;28;20266;-66
2022/01/11 02:28:07;;;;;;;56.42;28.20;;;2.30;99.90;;;;;;4968765;28;20088;-66
2022/01/11 02:30:34;;;;;;;65.78;28.85;;;2.20;99.90;;;;;;4967499;28;20035;-66
2022/01/11 02:33:03;;;;;;;58.63;28.10;;;2.20;99.90;;;;;;4972093;28;20114;-66
2022/01/11 02:35:29;;;;;;;55.67;28.48;;;2.20;99.90;;;;;;4972919;28;20510;-67
2022/01/11 02:37:55;;;;;;;67.57;28.65;;;2.20;99.90;;;;;;4968252;28;20058;-66
2022/01/11 02:40:20;;;;;;;61.53;29.13;;;2.20;99.90;;;;;;4961130;28;20138;-66
2022/01/11 02:42:46;;;;;;;53.80;26.33;;;2.20;99.90;;;;;;4960677;28;20027;-66
2022/01/11 02:45:18;;;;;;;61.80;28.50;;;2.20;99.90;;;;;;4960266;28;20033;-66
2022/01/11 02:47:46;;;;;;;60.13;27.23;;;2.30;99.90;;;;;;4962847;28;20103;-66
2022/01/11 02:50:21;;;;;;;55.13;26.45;;;2.30;99.90;;;;;;4962842;28;20010;-66
2022/01/11 02:52:47;;;;;;;49.38;26.75;;;2.30;99.90;;;;;;4965903;28;20027;-66
2022/01/11 02:55:14;;;;;;;52.60;26.40;;;2.30;99.90;;;;;;4969235;28;20522;-66
2022/01/11 02:57:43;;;;;;;45.90;25.73;;;2.20;99.90;;;;;;4970727;28;20042;-66
2022/01/11 03:00:13;;;;;;;60.30;26.60;;;2.20;99.90;;;;;;4973440;28;20022;-66
2022/01/11 03:02:39;;;;;;;49.85;26.67;;;2.20;99.90;;;;;;4964398;28;20030;-66
2022/01/11 03:05:06;;;;;;;55.03;24.40;;;2.20;99.90;;;;;;4963418;28;20406;-66
2022/01/11 03:07:32;;;;;;;46.30;25.38;;;2.30;99.90;;;;;;4967677;28;20494;-66
2022/01/11 03:12:23;;;;;;;47.20;23.58;;;2.30;99.90;;;;;;4969653;28;20130;-66
2022/01/11 03:14:49;;;;;;;49.65;23.83;;;2.30;99.90;;;;;;4963491;28;20035;-67
2022/01/11 03:17:15;;;;;;;48.17;24.92;;;2.30;99.90;;;;;;4974455;28;20768;-66
2022/01/11 03:19:40;;;;;;;54.63;26.13;;;2.30;99.90;;;;;;4970594;28;20054;-67
2022/01/11 03:22:06;;;;;;;49.60;26.00;;;2.30;99.90;;;;;;4969890;28;20030;-66
2022/01/11 03:24:32;;;;;;;61.95;27.27;;;2.30;99.90;;;;;;4969880;28;20031;-67
2022/01/11 03:26:57;;;;;;;59.35;28.17;;;2.30;99.90;;;;;;4968009;28;20033;-66
2022/01/11 03:29:23;;;;;;;54.38;27.90;;;2.30;99.90;;;;;;4966036;28;20023;-66
2022/01/11 03:31:48;;;;;;;47.33;24.98;;;2.30;99.90;;;;;;4973719;28;20110;-66
2022/01/11 03:34:19;;;;;;;56.50;26.95;;;2.20;99.90;;;;;;4965465;28;20035;-66
2022/01/11 03:36:47;;;;;;;46.65;23.80;;;2.20;99.90;;;;;;4962330;28;20050;-66
2022/01/11 03:39:13;;;;;;;50.00;26.15;;;2.20;99.90;;;;;;4978089;28;20026;-66
2022/01/11 03:41:38;;;;;;;52.63;24.73;;;2.20;99.90;;;;;;4969425;28;20027;-66
2022/01/11 03:44:04;;;;;;;50.90;25.25;;;2.20;99.90;;;;;;4973380;28;20050;-66
2022/01/11 03:46:30;;;;;;;55.08;24.65;;;2.20;99.90;;;;;;4964951;28;20036;-66
2022/01/11 03:48:56;;;;;;;49.78;24.50;;;2.10;99.90;;;;;;4960254;28;20403;-66
2022/01/11 03:51:22;;;;;;;47.63;23.60;;;2.10;99.90;;;;;;4967499;28;20037;-66
2022/01/11 03:54:02;;;;;;;54.72;22.77;;;2.10;99.90;;;;;;4972299;28;20069;-66
2022/01/11 03:56:28;;;;;;;48.25;23.00;;;2.10;99.90;;;;;;4967687;28;20046;-66
2022/01/11 03:58:58;;;;;;;54.38;23.73;;;2.20;99.90;;;;;;4973094;28;20027;-66
2022/01/11 04:01:25;;;;;;;48.78;23.45;;;2.20;99.90;;;;;;4975839;28;20034;-66
2022/01/11 04:03:50;;;;;;;43.35;21.45;;;2.20;99.90;;;;;;4974998;28;20549;-66
2022/01/11 04:06:28;;;;;;;42.40;22.67;;;2.20;99.90;;;;;;4973955;28;20046;-66
2022/01/11 04:09:04;;;;;;;46.75;24.33;;;2.10;99.90;;;;;;4967483;28;20085;-66
2022/01/11 04:11:31;;;;;;;55.58;25.17;;;2.20;99.90;;;;;;4973318;28;20482;-66
2022/01/11 04:13:56;;;;;;;48.17;24.73;;;2.20;99.90;;;;;;4969125;28;20031;-66
2022/01/11 04:16:22;;;;;;;61.47;27.35;;;2.10;99.90;;;;;;4968894;28;20049;-67
2022/01/11 04:18:47;;;;;;;76.80;29.20;;;2.20;99.90;;;;;;4970777;28;20056;-67
2022/01/11 04:21:13;;;;;;;84.43;34.88;;;2.20;99.90;;;;;;4962747;28;20042;-66
2022/01/11 04:23:40;;;;;;;86.00;34.22;;;2.20;99.90;;;;;;4965212;28;20023;-67
2022/01/11 04:26:26;;;;;;;69.45;29.92;;;2.20;99.90;;;;;;4969122;28;20553;-66
2022/01/11 04:28:54;;;;;;;74.38;28.48;;;2.20;99.90;;;;;;4972943;28;20042;-66
2022/01/11 04:31:20;;;;;;;82.10;29.50;;;2.20;99.90;;;;;;4973737;28;20035;-66
2022/01/11 04:33:48;;;;;;;100.85;31.55;;;2.20;99.90;;;;;;4967914;28;20110;-66
2022/01/11 04:36:14;;;;;;;95.55;31.08;;;2.20;99.90;;;;;;4974458;28;20398;-66
2022/01/11 04:38:40;;;;;;;66.22;31.15;;;2.20;99.90;;;;;;4969754;28;20038;-66
2022/01/11 04:41:06;;;;;;;87.15;31.92;;;2.20;99.90;;;;;;4967488;28;20039;-66
2022/01/11 04:43:32;;;;;;;81.93;31.77;;;2.20;99.90;;;;;;4976432;28;20038;-66
2022/01/11 04:45:58;;;;;;;65.25;27.48;;;2.20;99.90;;;;;;4970590;28;20085;-67
2022/01/11 04:48:33;;;;;;;69.65;30.63;;;2.20;99.90;;;;;;4966250;28;20031;-66
2022/01/11 04:51:00;;;;;;;56.33;26.10;;;2.20;99.90;;;;;;4966893;28;20030;-66
2022/01/11 04:53:34;;;;;;;49.22;24.30;;;2.20;99.90;;;;;;4964897;28;20019;-66
2022/01/11 04:56:00;;;;;;;54.10;23.90;;;2.20;99.90;;;;;;4962525;28;20071;-66
2022/01/11 04:58:26;;;;;;;46.95;23.85;;;2.20;99.90;;;;;;4972299;28;20054;-66
2022/01/11 05:00:52;;;;;;;44.10;22.75;;;2.20;99.90;;;;;;4973200;28;20038;-66
2022/01/11 05:03:19;;;;;;;51.50;25.55;;;2.20;99.90;;;;;;4974927;28;20031;-66
2022/01/11 05:05:45;;;;;;;53.55;25.10;;;2.20;99.90;;;;;;4970005;28;20708;-66
2022/01/11 05:08:11;;;;;;;55.10;25.70;;;2.20;99.90;;;;;;4972758;28;20035;-66
2022/01/11 05:10:42;;;;;;;65.28;29.38;;;2.20;99.90;;;;;;4968921;28;20027;-66
2022/01/11 05:13:11;;;;;;;64.40;28.27;;;2.20;99.90;;;;;;4961471;28;20232;-66
2022/01/11 05:15:59;;;;;;;50.20;25.73;;;2.20;99.90;;;;;;4974366;28;20023;-67
2022/01/11 05:18:25;;;;;;;49.60;23.95;;;2.20;99.90;;;;;;4968841;28;20032;-66
2022/01/11 05:20:50;;;;;;;52.40;26.65;;;2.20;99.90;;;;;;4970264;28;20041;-66
2022/01/11 05:23:18;;;;;;;66.80;28.60;;;2.20;99.90;;;;;;4972565;28;20026;-65
2022/01/11 05:25:44;;;;;;;55.42;29.38;;;2.20;99.90;;;;;;4976931;28;20158;-65
2022/01/11 05:28:30;;;;;;;62.45;29.88;;;2.20;99.90;;;;;;4971152;28;20122;-65
2022/01/11 05:30:56;;;;;;;57.78;25.65;;;2.20;99.90;;;;;;4968515;28;20073;-66
2022/01/11 05:33:21;;;;;;;57.35;25.20;;;2.20;99.90;;;;;;4976176;28;20078;-66
2022/01/11 05:35:47;;;;;;;54.15;26.85;;;2.20;99.90;;;;;;4966783;28;20050;-66
2022/01/11 05:38:33;;;;;;;55.35;24.70;;;2.20;99.90;;;;;;4970259;28;20058;-66
2022/01/11 05:40:58;;;;;;;47.15;22.10;;;2.20;99.90;;;;;;4931899;28;20042;-66
2022/01/11 05:43:24;;;;;;;55.80;25.67;;;2.30;99.90;;;;;;4970269;28;20031;-66
2022/01/11 05:45:52;;;;;;;56.45;25.27;;;2.20;99.90;;;;;;4966466;28;20522;-65
2022/01/11 05:48:19;;;;;;;64.57;25.70;;;2.20;99.90;;;;;;4971711;28;20042;-66
2022/01/11 05:50:45;;;;;;;59.30;26.92;;;2.30;99.90;;;;;;4962952;28;20027;-66
2022/01/11 05:53:11;;;;;;;49.15;25.90;;;2.30;99.90;;;;;;4966131;28;20089;-65
2022/01/11 05:55:39;;;;;;;47.75;23.83;;;2.30;99.90;;;;;;4968325;28;20049;-66
2022/01/11 05:58:05;;;;;;;63.95;28.42;;;2.20;99.90;;;;;;4964580;28;20130;-66
2022/01/11 06:00:31;;;;;;;57.85;29.77;;;2.20;99.90;;;;;;4965187;28;20114;-66
2022/01/11 06:02:58;;;;;;;69.93;31.17;;;2.20;99.90;;;;;;4967576;28;20390;-66
2022/01/11 06:05:24;;;;;;;63.20;28.63;;;2.30;99.90;;;;;;4976450;28;20027;-66
2022/01/11 06:07:50;;;;;;;70.97;32.40;;;2.30;99.90;;;;;;4974711;28;20027;-66
2022/01/11 06:10:16;;;;;;;63.40;32.88;;;2.20;99.90;;;;;;4967090;28;20040;-66
2022/01/11 06:12:42;;;;;;;67.97;30.90;;;2.20;99.90;;;;;;4959686;28;20032;-66
2022/01/11 06:15:11;;;;;;;55.83;26.40;;;2.20;99.90;;;;;;4967519;28;20038;-66
2022/01/11 06:17:37;;;;;;;55.88;28.88;;;2.20;99.90;;;;;;4976050;28;20037;-66
2022/01/11 06:20:05;;;;;;;61.40;28.35;;;2.20;99.90;;;;;;4969006;28;20023;-66
2022/01/11 06:22:48;;;;;;;60.53;29.00;;;2.20;99.90;;;;;;4960058;28;20031;-66
2022/01/11 06:25:14;;;;;;;65.07;29.63;;;2.20;99.90;;;;;;4963823;28;20036;-66
2022/01/11 06:27:43;;;;;;;56.70;27.38;;;2.20;99.90;;;;;;4973803;28;20037;-66
2022/01/11 06:30:18;;;;;;;58.75;26.98;;;2.20;99.90;;;;;;4974284;28;20019;-66
2022/01/11 06:32:44;;;;;;;49.88;26.77;;;2.10;99.90;;;;;;4959260;28;20482;-66
2022/01/11 06:35:15;;;;;;;51.47;24.67;;;2.10;99.90;;;;;;4966394;28;20030;-66
2022/01/11 06:37:41;;;;;;;50.57;24.87;;;2.10;99.90;;;;;;4970175;28;20761;-67
2022/01/11 06:40:08;;;;;;;56.63;26.92;;;2.10;99.90;;;;;;4962604;28;20064;-67
2022/01/11 06:42:46;;;;;;;48.30;25.33;;;2.10;99.90;;;;;;4973052;28;20030;-65
2022/01/11 06:45:15;;;;;;;48.05;24.75;;;2.20;99.90;;;;;;4976139;28;20030;-65
2022/01/11 06:47:51;;;;;;;58.97;27.90;;;2.10;99.90;;;;;;4971623;28;20038;-64
2022/01/11 06:50:17;;;;;;;51.97;25.92;;;2.20;99.90;;;;;;4960223;28;20405;-65
2022/01/11 06:52:43;;;;;;;58.10;27.45;;;2.20;99.90;;;;;;4963690;28;20069;-63
2022/01/11 06:55:09;;;;;;;59.20;28.35;;;2.20;99.90;;;;;;4960647;28;20498;-64
2022/01/11 06:57:53;;;;;;;50.65;25.92;;;2.20;99.90;;;;;;4966902;28;20123;-63
2022/01/11 07:00:19;;;;;;;65.13;29.67;;;2.10;99.90;;;;;;4968034;28;20054;-64
2022/01/11 07:02:49;;;;;;;48.97;24.33;;;2.10;99.90;;;;;;4963022;28;20034;-64
2022/01/11 07:05:16;;;;;;;50.57;25.07;;;2.10;99.90;;;;;;4961032;28;20015;-64
2022/01/11 07:07:42;;;;;;;48.30;23.60;;;2.10;99.90;;;;;;4961990;28;20290;-64
2022/01/11 07:10:08;;;;;;;42.28;22.88;;;2.10;99.90;;;;;;4976324;28;20031;-64
2022/01/11 07:12:33;;;;;;;34.95;20.50;;;2.10;99.90;;;;;;4970927;28;20027;-64
2022/01/11 07:14:59;;;;;;;38.70;21.55;;;2.10;99.90;;;;;;4982116;28;20094;-64
2022/01/11 07:17:25;;;;;;;39.55;21.67;;;2.10;99.90;;;;;;4963858;28;20034;-64
2022/01/11 07:19:51;;;;;;;39.95;23.45;;;2.10;99.90;;;;;;4959336;28;20039;-64
2022/01/11 07:22:17;;;;;;;40.60;23.75;;;2.10;99.90;;;;;;4975878;28;20129;-64
2022/01/11 07:24:43;;;;;;;54.15;26.00;;;2.10;99.90;;;;;;4972213;28;20122;-64
2022/01/11 07:27:09;;;;;;;47.50;24.77;;;2.10;99.90;;;;;;4963479;28;20036;-64
2022/01/11 07:29:34;;;;;;;56.42;26.58;;;2.20;99.90;;;;;;4964039;28;20106;-64
2022/01/11 07:32:09;;;;;;;47.08;25.38;;;2.20;99.90;;;;;;4959191;28;20106;-64
2022/01/11 07:34:35;;;;;;;55.10;25.95;;;2.20;99.90;;;;;;4966936;28;20031;-64
2022/01/11 07:37:07;;;;;;;46.72;24.88;;;2.20;99.90;;;;;;4962637;28;20046;-64
2022/01/11 07:39:36;;;;;;;47.05;25.70;;;2.30;99.90;;;;;;4964029;28;20114;-64
2022/01/11 07:42:10;;;;;;;56.88;25.55;;;2.30;99.90;;;;;;4965343;28;20038;-64
2022/01/11 07:44:36;;;;;;;55.75;28.08;;;2.30;99.90;;;;;;4958995;28;20030;-64
2022/01/11 07:47:08;;;;;;;104.32;47.60;;;2.30;99.90;;;;;;4973295;28;20026;-64
2022/01/11 07:49:36;;;;;;;56.85;28.38;;;2.30;99.90;;;;;;4978210;28;20035;-64
2022/01/11 07:52:08;;;;;;;51.50;25.08;;;2.30;99.90;;;;;;4970489;28;20023;-64
2022/01/11 07:54:43;;;;;;;44.53;24.55;;;2.30;99.90;;;;;;4962970;28;20548;-63
2022/01/11 07:57:09;;;;;;;44.47;24.38;;;2.30;99.90;;;;;;4962197;28;20038;-64
2022/01/11 07:59:35;;;;;;;63.53;30.30;;;2.30;99.90;;;;;;4994923;28;20027;-64
2022/01/11 08:02:08;;;;;;;52.45;27.05;;;2.40;99.90;;;;;;4968999;28;20054;-64
2022/01/11 08:04:43;;;;;;;60.15;29.98;;;2.40;99.90;;;;;;4969533;28;20058;-64
2022/01/11 08:07:10;;;;;;;42.53;22.13;;;2.40;99.90;;;;;;4963948;28;20113;-64
2022/01/11 08:09:39;;;;;;;42.33;23.50;;;2.50;99.90;;;;;;4963458;28;20086;-64
2022/01/11 08:12:05;;;;;;;44.53;21.77;;;2.50;99.90;;;;;;4963023;28;20058;-63
2022/01/11 08:14:31;;;;;;;51.63;26.02;;;2.60;99.90;;;;;;4962196;28;20381;-65
2022/01/11 08:17:12;;;;;;;55.17;26.65;;;2.60;99.90;;;;;;4974727;28;20426;-64
2022/01/11 08:19:40;;;;;;;47.25;25.55;;;2.60;99.90;;;;;;4962502;28;20031;-64
2022/01/11 08:22:15;;;;;;;46.85;25.75;;;2.60;99.90;;;;;;4959784;28;20033;-64
2022/01/11 08:24:43;;;;;;;61.30;30.70;;;2.70;99.90;;;;;;4971297;28;20512;-64
2022/01/11 08:27:12;;;;;;;46.38;25.98;;;2.60;99.90;;;;;;4980336;28;20057;-64
2022/01/11 08:29:39;;;;;;;50.42;25.23;;;2.70;99.90;;;;;;4976043;28;20042;-64
2022/01/11 08:32:06;;;;;;;44.58;24.98;;;2.70;99.90;;;;;;4965090;28;20022;-64
2022/01/11 08:34:32;;;;;;;39.35;24.60;;;2.70;99.90;;;;;;4964826;28;20401;-64
2022/01/11 08:37:18;;;;;;;43.03;23.45;;;2.70;99.90;;;;;;4963034;28;20023;-64
2022/01/11 08:39:44;;;;;;;42.25;24.27;;;2.80;99.90;;;;;;4965958;28;20043;-65
2022/01/11 08:42:13;;;;;;;40.95;25.80;;;2.90;99.90;;;;;;4969322;28;20034;-64
2022/01/11 08:44:46;;;;;;;40.47;22.90;;;2.90;99.90;;;;;;4961862;28;20026;-64
2022/01/11 08:47:16;;;;;;;35.83;21.23;;;2.90;99.90;;;;;;4968879;28;20022;-64
2022/01/11 08:49:44;;;;;;;28.77;20.27;;;3.00;99.90;;;;;;4968667;28;20444;-63
2022/01/11 08:52:17;;;;;;;37.97;19.27;;;3.00;99.90;;;;;;4978454;28;20398;-64
2022/01/11 08:54:46;;;;;;;28.98;18.70;;;3.00;99.90;;;;;;4972836;28;20035;-64
2022/01/11 08:57:19;;;;;;;25.17;18.25;;;3.10;99.90;;;;;;4969892;28;20376;-64
2022/01/11 08:59:45;;;;;;;28.67;17.13;;;3.20;99.90;;;;;;4966113;28;20043;-64
2022/01/11 09:02:21;;;;;;;29.85;18.88;;;3.20;99.90;;;;;;4968073;28;20227;-64
2022/01/11 09:04:48;;;;;;;29.27;18.20;;;3.20;99.90;;;;;;4972628;28;20278;-64
2022/01/11 09:07:14;;;;;;;25.52;17.55;;;3.30;99.90;;;;;;4974510;28;20363;-64
2022/01/11 09:09:39;;;;;;;25.05;17.08;;;3.40;99.90;;;;;;4975050;28;20038;-64
2022/01/11 09:12:25;;;;;;;25.40;18.77;;;3.50;99.90;;;;;;4966079;28;20023;-64
2022/01/11 09:14:51;;;;;;;24.45;17.65;;;3.60;99.90;;;;;;4966048;28;20034;-64
2022/01/11 09:17:17;;;;;;;28.00;17.73;;;3.60;99.90;;;;;;4966821;28;20046;-63
2022/01/11 09:19:43;;;;;;;25.75;18.60;;;3.60;99.90;;;;;;4964416;28;20126;-64
2022/01/11 09:22:08;;;;;;;24.48;17.98;;;3.70;99.90;;;;;;4970751;28;20031;-64
2022/01/11 09:24:36;;;;;;;25.85;17.45;;;3.70;99.90;;;;;;4968933;28;20045;-64
2022/01/11 09:27:04;;;;;;;25.05;16.85;;;3.70;99.90;;;;;;4963546;28;20035;-64
2022/01/11 09:29:37;;;;;;;27.00;17.48;;;3.80;99.90;;;;;;4971436;28;20504;-64
2022/01/11 09:32:04;;;;;;;20.83;16.50;;;4.00;99.90;;;;;;4978724;28;20030;-64
2022/01/11 09:34:33;;;;;;;21.15;14.13;;;4.20;99.90;;;;;;4970320;28;20054;-64
2022/01/11 09:37:04;;;;;;;15.82;12.00;;;4.30;99.90;;;;;;4963569;28;20035;-64
2022/01/11 09:39:39;;;;;;;14.05;11.35;;;4.40;99.90;;;;;;4964992;28;20023;-64
2022/01/11 09:42:06;;;;;;;12.98;10.70;;;4.50;99.90;;;;;;4964465;28;20024;-64
2022/01/11 09:44:38;;;;;;;17.35;14.02;;;4.60;99.90;;;;;;4968928;28;20027;-65
2022/01/11 09:47:06;;;;;;;10.57;9.30;;;4.70;99.90;;;;;;4969129;28;20390;-64
2022/01/11 09:49:34;;;;;;;12.40;9.43;;;4.80;99.90;;;;;;4967058;28;20034;-64
2022/01/11 09:52:10;;;;;;;10.88;9.77;;;4.80;99.90;;;;;;4968271;28;20031;-64
2022/01/11 09:54:41;;;;;;;10.88;8.95;;;4.90;99.90;;;;;;4971546;28;20035;-64
2022/01/11 09:57:09;;;;;;;10.45;8.68;;;4.90;99.90;;;;;;4977796;28;20093;-64
2022/01/11 09:59:39;;;;;;;10.80;9.70;;;5.00;99.90;;;;;;4970614;28;20031;-65
2022/01/11 10:02:06;;;;;;;9.75;6.85;;;5.00;99.90;;;;;;4964944;28;20027;-64
2022/01/11 10:04:34;;;;;;;8.10;6.38;;;5.00;99.90;;;;;;4967034;28;20049;-64
2022/01/11 10:07:09;;;;;;;10.18;8.02;;;5.10;99.90;;;;;;4967077;28;20028;-65
2022/01/11 10:09:48;;;;;;;9.93;7.85;;;5.10;99.90;;;;;;4968844;28;20030;-64
2022/01/11 10:12:15;;;;;;;8.88;7.32;;;5.20;99.90;;;;;;4973733;28;20110;-64
2022/01/11 10:14:52;;;;;;;19.58;12.20;;;5.20;99.90;;;;;;4976384;28;20023;-65
2022/01/11 10:17:19;;;;;;;6.32;5.70;;;5.30;99.90;;;;;;4968841;28;20069;-64
2022/01/11 10:19:51;;;;;;;5.85;5.25;;;5.20;99.90;;;;;;4968794;28;20122;-65
2022/01/11 10:22:22;;;;;;;8.82;6.10;;;5.10;99.90;;;;;;4964957;28;20086;-65
2022/01/11 10:24:51;;;;;;;7.68;6.47;;;5.10;99.90;;;;;;4964794;28;20036;-64
2022/01/11 10:27:46;;;;;;;8.25;7.43;;;5.10;99.90;;;;;;4965589;28;20079;-64
2022/01/11 10:30:17;;;;;;;9.80;8.25;;;5.20;99.90;;;;;;4962401;28;20700;-64
2022/01/11 10:32:45;;;;;;;6.53;5.88;;;5.40;99.90;;;;;;4971691;28;20870;-65
2022/01/11 10:35:23;;;;;;;6.75;5.65;;;5.50;99.90;;;;;;4967316;28;20494;-64
2022/01/11 10:38:17;;;;;;;8.88;7.80;;;5.50;99.90;;;;;;4971367;28;20053;-64
2022/01/11 10:40:46;;;;;;;9.52;7.85;;;5.70;99.90;;;;;;4930847;28;20035;-64
2022/01/11 10:43:15;;;;;;;12.93;6.93;;;5.80;99.90;;;;;;4960034;28;20031;-65
2022/01/11 10:45:58;;;;;;;27.00;12.05;;;5.90;99.90;;;;;;4978878;28;20043;-64
2022/01/11 10:48:29;;;;;;;65.10;24.55;;;5.90;99.90;;;;;;4962939;28;20027;-64
2022/01/11 10:51:16;;;;;;;55.17;23.20;;;6.00;99.90;;;;;;4967930;28;20596;-64
2022/01/11 10:53:48;;;;;;;23.73;11.50;;;6.00;99.90;;;;;;4967709;28;20537;-65
2022/01/11 10:56:16;;;;;;;10.55;5.93;;;6.20;99.90;;;;;;4962283;28;20058;-64
2022/01/11 10:58:42;;;;;;;12.38;5.97;;;6.20;99.90;;;;;;4965628;28;20038;-64
2022/01/11 11:01:11;;;;;;;93.90;31.38;;;6.30;99.90;;;;;;4970927;28;20030;-64
2022/01/11 11:03:48;;;;;;;6.05;4.15;;;6.20;99.90;;;;;;4972095;28;20398;-64
2022/01/11 11:06:15;;;;;;;24.23;10.80;;;6.10;99.90;;;;;;4965560;28;20035;-65
2022/01/11 11:08:45;;;;;;;14.40;7.10;;;5.80;99.90;;;;;;4967275;28;20102;-64
2022/01/11 11:11:20;;;;;;;30.23;11.90;;;5.80;99.90;;;;;;4967463;28;20025;-66
2022/01/11 11:13:48;;;;;;;14.18;8.55;;;5.80;99.90;;;;;;4983442;28;20027;-65
2022/01/11 11:16:37;;;;;;;30.30;11.93;;;5.70;99.90;;;;;;4968686;28;20398;-66
2022/01/11 11:19:04;;;;;;;43.22;14.52;;;5.60;99.90;;;;;;4961760;28;20664;-66
2022/01/11 11:21:57;;;;;;;43.78;16.77;;;5.40;99.90;;;;;;4961291;28;20051;-66
2022/01/11 11:24:24;;;;;;;21.35;9.93;;;5.30;99.90;;;;;;4967185;28;20031;-64
2022/01/11 11:26:50;;;;;;;4.72;4.00;;;5.60;99.90;;;;;;4963555;28;20053;-64
2022/01/11 11:29:18;;;;;;;2.95;2.28;;;6.10;99.90;;;;;;4967243;28;20478;-64
2022/01/11 11:31:47;;;;;;;2.90;2.42;;;6.30;99.90;;;;;;4965992;28;20090;-64
2022/01/11 11:34:16;;;;;;;3.38;2.65;;;6.80;99.90;;;;;;4979788;28;20027;-65
2022/01/11 11:36:42;;;;;;;3.70;3.05;;;7.30;99.90;;;;;;4969399;28;20039;-64
2022/01/11 11:39:20;;;;;;;3.05;2.55;;;7.60;99.90;;;;;;4968377;28;20031;-64
2022/01/11 11:42:09;;;;;;;3.25;2.50;;;7.80;98.30;;;;;;4968835;28;20112;-64
2022/01/11 11:44:38;;;;;;;10.70;6.85;;;8.10;95.40;;;;;;4962578;28;20027;-64
2022/01/11 11:47:06;;;;;;;4.93;2.92;;;8.60;95.70;;;;;;4966246;28;20019;-64
2022/01/11 11:50:11;;;;;;;4.15;3.60;;;9.00;93.70;;;;;;4975595;28;20023;-64
2022/01/11 11:52:38;;;;;;;6.70;5.18;;;8.90;93.80;;;;;;4964541;28;20035;-63
2022/01/11 11:55:10;;;;;;;23.13;11.75;;;9.10;94.70;;;;;;4966225;28;20027;-64
2022/01/11 11:57:40;;;;;;;10.07;5.82;;;9.10;93.50;;;;;;4969681;28;20046;-64
2022/01/11 12:00:14;;;;;;;3.60;2.78;;;9.00;93.10;;;;;;4967282;28;20052;-64
2022/01/11 12:02:41;;;;;;;3.38;2.60;;;8.70;92.40;;;;;;4965015;28;20360;-64
2022/01/11 12:05:14;;;;;;;4.80;3.55;;;8.50;94.90;;;;;;4969057;28;20031;-63
2022/01/11 12:07:43;;;;;;;15.57;10.07;;;8.30;94.40;;;;;;4974471;28;20041;-64
2022/01/11 12:10:33;;;;;;;4.22;3.25;;;8.20;94.30;;;;;;4972581;28;20065;-64
2022/01/11 12:12:59;;;;;;;47.13;21.60;;;7.90;93.60;;;;;;4980402;28;20027;-64
2022/01/11 12:15:35;;;;;;;3.65;3.15;;;7.80;94.80;;;;;;4975899;28;20031;-64
2022/01/11 12:18:06;;;;;;;8.20;5.28;;;7.40;93.20;;;;;;4971385;28;20038;-64
2022/01/11 12:20:43;;;;;;;4.68;3.42;;;6.70;95.20;;;;;;4968783;28;20030;-64
2022/01/11 12:23:20;;;;;;;6.40;2.72;;;6.50;96.50;;;;;;4970159;28;20018;-64
2022/01/11 12:25:50;;;;;;;51.53;20.45;;;6.30;95.60;;;;;;4963667;28;20041;-63
2022/01/11 12:28:41;;;;;;;11.73;7.43;;;6.30;97.40;;;;;;4971906;28;20042;-63
2022/01/11 12:31:38;;;;;;;23.10;10.25;;;6.30;97.90;;;;;;4964676;28;20102;-63
2022/01/11 12:34:14;;;;;;;29.75;12.50;;;6.30;97.50;;;;;;4970614;28;20031;-65
2022/01/11 12:37:19;;;;;;;11.38;7.15;;;6.40;97.20;;;;;;4967817;28;20055;-64
2022/01/11 12:39:58;;;;;;;33.50;12.70;;;6.40;96.90;;;;;;4974325;28;20027;-64
2022/01/11 12:42:51;;;;;;;30.17;14.25;;;6.30;96.90;;;;;;4968072;28;20031;-64
2022/01/11 12:46:07;;;;;;;5.10;4.00;;;5.90;97.70;;;;;;4961332;28;20122;-64
2022/01/11 12:48:53;;;;;;;8.38;6.10;;;5.70;96.20;;;;;;4969770;28;20475;-64
2022/01/11 12:51:19;;;;;;;4.38;3.20;;;5.40;97.90;;;;;;4970687;28;20030;-64
2022/01/11 12:53:45;;;;;;;4.75;3.83;;;5.20;99.10;;;;;;4976182;28;20394;-63
2022/01/11 12:56:11;;;;;;;5.80;4.40;;;5.10;99.20;;;;;;4968010;28;20031;-64
2022/01/11 12:58:43;;;;;;;4.80;3.28;;;4.90;99.90;;;;;;4940005;28;20026;-64
2022/01/11 13:01:19;;;;;;;5.15;4.65;;;4.70;99.40;;;;;;4971633;28;20038;-64
2022/01/11 13:03:56;;;;;;;5.22;3.88;;;4.60;99.90;;;;;;4966605;28;20376;-64